createdAt,value
2022-11-06T00:00:57.947Z,981.30
2022-11-06T00:01:57.961Z,981.27
2022-11-06T00:02:57.881Z,981.28
2022-11-06T00:03:57.702Z,981.25
2022-11-06T00:04:57.619Z,981.30
2022-11-06T00:05:57.538Z,981.31
2022-11-06T00:06:57.448Z,981.28
2022-11-06T00:07:57.368Z,981.26
2022-11-06T00:08:57.285Z,981.29
2022-11-06T00:09:57.207Z,981.29
2022-11-06T00:10:57.120Z,981.29
2022-11-06T00:11:57.042Z,981.28
2022-11-06T00:12:56.953Z,981.26
2022-11-06T00:13:56.873Z,981.28
2022-11-06T00:14:56.789Z,981.24
2022-11-06T00:15:56.708Z,981.23
2022-11-06T00:16:56.625Z,981.24
2022-11-06T00:17:56.548Z,981.22
2022-11-06T00:18:56.460Z,981.21
2022-11-06T00:19:56.382Z,981.22
2022-11-06T00:20:56.291Z,981.25
2022-11-06T00:21:56.213Z,981.26
2022-11-06T00:22:56.125Z,981.25
2022-11-06T00:23:56.051Z,981.21
2022-11-06T00:24:55.963Z,981.26
2022-11-06T00:25:55.883Z,981.21
2022-11-06T00:26:55.797Z,981.21
2022-11-06T00:27:55.720Z,981.21
2022-11-06T00:28:55.631Z,981.22
2022-11-06T00:29:55.547Z,981.20
2022-11-06T00:30:55.460Z,981.16
2022-11-06T00:31:55.383Z,981.14
2022-11-06T00:32:55.301Z,981.16
2022-11-06T00:33:55.216Z,981.15
2022-11-06T00:34:55.130Z,981.17
2022-11-06T00:35:55.051Z,981.14
2022-11-06T00:36:54.963Z,981.16
2022-11-06T00:37:54.885Z,981.18
2022-11-06T00:38:54.800Z,981.21
2022-11-06T00:39:54.722Z,981.18
2022-11-06T00:40:54.633Z,981.18
2022-11-06T00:41:54.550Z,981.20
2022-11-06T00:42:54.472Z,981.25
2022-11-06T00:43:54.391Z,981.23
2022-11-06T00:44:54.299Z,981.23
2022-11-06T00:45:54.223Z,981.27
2022-11-06T00:46:54.132Z,981.27
2022-11-06T00:47:54.051Z,981.31
2022-11-06T00:48:53.970Z,981.30
2022-11-06T00:49:53.886Z,981.26
2022-11-06T00:50:53.800Z,981.24
2022-11-06T00:51:53.719Z,981.22
2022-11-06T00:52:53.636Z,981.20
2022-11-06T00:53:53.557Z,981.19
2022-11-06T00:54:53.469Z,981.21
2022-11-06T00:55:53.388Z,981.24
2022-11-06T00:56:53.303Z,981.21
2022-11-06T00:57:53.221Z,981.19
2022-11-06T00:58:53.136Z,981.18
2022-11-06T00:59:53.053Z,981.16
2022-11-06T01:00:52.970Z,981.19
2022-11-06T01:01:53.035Z,981.19
2022-11-06T01:02:52.905Z,981.21
2022-11-06T01:03:52.722Z,981.19
2022-11-06T01:04:52.633Z,981.20
2022-11-06T01:05:52.555Z,981.22
2022-11-06T01:06:52.473Z,981.24
2022-11-06T01:07:52.390Z,981.27
2022-11-06T01:08:52.306Z,981.28
2022-11-06T01:09:52.223Z,981.27
2022-11-06T01:10:52.143Z,981.27
2022-11-06T01:12:12.347Z,981.29
2022-11-06T01:12:51.969Z,981.29
2022-11-06T01:13:51.890Z,981.31
2022-11-06T01:14:51.799Z,981.29
2022-11-06T01:15:51.719Z,981.27
2022-11-06T01:16:51.636Z,981.26
2022-11-06T01:17:51.554Z,981.25
2022-11-06T01:18:51.466Z,981.26
2022-11-06T01:19:51.389Z,981.25
2022-11-06T01:20:51.302Z,981.27
2022-11-06T01:21:51.219Z,981.28
2022-11-06T01:22:51.135Z,981.26
2022-11-06T01:23:51.051Z,981.26
2022-11-06T01:24:51.047Z,981.26
2022-11-06T01:25:50.886Z,981.27
2022-11-06T01:27:19.830Z,981.26
2022-11-06T01:27:50.716Z,981.24
2022-11-06T01:28:50.633Z,981.24
2022-11-06T01:29:50.551Z,981.25
2022-11-06T01:30:50.473Z,981.24
2022-11-06T01:31:50.391Z,981.22
2022-11-06T01:32:50.301Z,981.23
2022-11-06T01:33:50.219Z,981.20
2022-11-06T01:34:50.135Z,981.22
2022-11-06T01:35:50.047Z,981.24
2022-11-06T01:36:49.968Z,981.23
2022-11-06T01:37:49.883Z,981.22
2022-11-06T01:38:49.798Z,981.20
2022-11-06T01:39:49.714Z,981.21
2022-11-06T01:40:49.634Z,981.18
2022-11-06T01:41:49.549Z,981.14
2022-11-06T01:42:49.466Z,981.17
2022-11-06T01:43:49.382Z,981.16
2022-11-06T01:44:49.300Z,981.18
2022-11-06T01:45:49.215Z,981.18
2022-11-06T01:46:49.136Z,981.21
2022-11-06T01:47:49.048Z,981.19
2022-11-06T01:48:48.964Z,981.18
2022-11-06T01:49:48.878Z,981.14
2022-11-06T01:50:48.797Z,981.17
2022-11-06T01:51:48.708Z,981.16
2022-11-06T01:52:48.627Z,981.14
2022-11-06T01:53:48.545Z,981.12
2022-11-06T01:54:48.462Z,981.10
2022-11-06T01:55:48.374Z,981.10
2022-11-06T01:56:48.294Z,981.11
2022-11-06T01:57:48.207Z,981.12
2022-11-06T01:58:48.124Z,981.12
2022-11-06T01:59:48.039Z,981.12
2022-11-06T02:00:47.960Z,981.10
2022-11-06T02:01:47.986Z,981.12
2022-11-06T02:02:47.970Z,981.07
2022-11-06T02:03:47.708Z,981.10
2022-11-06T02:04:47.622Z,981.08
2022-11-06T02:05:47.546Z,981.04
2022-11-06T02:06:47.458Z,981.04
2022-11-06T02:07:47.378Z,981.06
2022-11-06T02:08:47.290Z,981.03
2022-11-06T02:09:47.206Z,981.04
2022-11-06T02:10:47.123Z,981.01
2022-11-06T02:11:47.034Z,981.04
2022-11-06T02:12:46.959Z,981.02
2022-11-06T02:13:46.872Z,981.02
2022-11-06T02:14:46.784Z,981.01
2022-11-06T02:15:46.700Z,981.03
2022-11-06T02:16:46.647Z,981.01
2022-11-06T02:17:46.535Z,981.02
2022-11-06T02:18:46.457Z,981.01
2022-11-06T02:19:46.373Z,980.99
2022-11-06T02:20:46.286Z,981.02
2022-11-06T02:21:46.199Z,980.99
2022-11-06T02:22:46.118Z,980.96
2022-11-06T02:23:46.035Z,980.96
2022-11-06T02:24:45.946Z,980.94
2022-11-06T02:25:45.865Z,980.95
2022-11-06T02:26:45.781Z,980.94
2022-11-06T02:27:45.699Z,980.94
2022-11-06T02:28:45.611Z,980.93
2022-11-06T02:29:45.533Z,980.93
2022-11-06T02:30:45.444Z,980.92
2022-11-06T02:31:45.363Z,980.94
2022-11-06T02:32:45.278Z,980.96
2022-11-06T02:33:45.197Z,980.93
2022-11-06T02:34:45.108Z,980.94
2022-11-06T02:35:45.028Z,980.95
2022-11-06T02:36:44.944Z,980.94
2022-11-06T02:37:44.859Z,980.94
2022-11-06T02:38:44.800Z,980.97
2022-11-06T02:39:44.696Z,980.98
2022-11-06T02:40:44.613Z,980.99
2022-11-06T02:41:44.529Z,980.92
2022-11-06T02:42:44.440Z,980.95
2022-11-06T02:43:44.357Z,980.89
2022-11-06T02:44:44.270Z,980.89
2022-11-06T02:45:44.186Z,980.87
2022-11-06T02:46:44.107Z,980.87
2022-11-06T02:47:44.020Z,980.85
2022-11-06T02:48:43.936Z,980.86
2022-11-06T02:49:43.850Z,980.83
2022-11-06T02:50:43.770Z,980.80
2022-11-06T02:51:43.787Z,980.80
2022-11-06T02:52:43.603Z,980.77
2022-11-06T02:53:43.518Z,980.82
2022-11-06T02:54:43.437Z,980.80
2022-11-06T02:55:43.348Z,980.82
2022-11-06T02:56:43.263Z,980.79
2022-11-06T02:57:43.180Z,980.81
2022-11-06T02:58:48.664Z,980.81
2022-11-06T02:59:43.010Z,980.79
2022-11-06T03:00:42.927Z,980.83
2022-11-06T03:01:42.977Z,980.82
2022-11-06T03:02:42.924Z,980.83
2022-11-06T03:03:42.676Z,980.84
2022-11-06T03:04:42.593Z,980.87
2022-11-06T03:05:42.507Z,980.83
2022-11-06T03:06:42.423Z,980.84
2022-11-06T03:07:42.344Z,980.83
2022-11-06T03:08:42.258Z,980.81
2022-11-06T03:09:42.172Z,980.81
2022-11-06T03:10:42.093Z,980.81
2022-11-06T03:11:42.009Z,980.83
2022-11-06T03:12:41.927Z,980.78
2022-11-06T03:13:41.839Z,980.80
2022-11-06T03:14:41.755Z,980.83
2022-11-06T03:15:41.677Z,980.83
2022-11-06T03:16:41.586Z,980.85
2022-11-06T03:17:41.500Z,980.85
2022-11-06T03:18:41.421Z,980.88
2022-11-06T03:19:41.340Z,980.86
2022-11-06T03:20:41.249Z,980.85
2022-11-06T03:21:41.170Z,980.85
2022-11-06T03:22:41.081Z,980.76
2022-11-06T03:23:41.098Z,980.76
2022-11-06T03:24:40.912Z,980.70
2022-11-06T03:25:40.832Z,980.67
2022-11-06T03:26:40.748Z,980.66
2022-11-06T03:27:40.662Z,980.62
2022-11-06T03:28:40.584Z,980.62
2022-11-06T03:29:40.492Z,980.59
2022-11-06T03:30:40.409Z,980.60
2022-11-06T03:31:40.325Z,980.56
2022-11-06T03:32:40.248Z,980.53
2022-11-06T03:33:40.168Z,980.51
2022-11-06T03:34:40.076Z,980.52
2022-11-06T03:35:39.989Z,980.53
2022-11-06T03:36:39.912Z,980.54
2022-11-06T03:37:39.829Z,980.56
2022-11-06T03:38:42.386Z,980.60
2022-11-06T03:39:39.658Z,980.59
2022-11-06T03:40:39.569Z,980.56
2022-11-06T03:41:39.487Z,980.57
2022-11-06T03:42:39.403Z,980.52
2022-11-06T03:43:39.318Z,980.50
2022-11-06T03:44:39.240Z,980.47
2022-11-06T03:45:39.154Z,980.42
2022-11-06T03:46:39.064Z,980.37
2022-11-06T03:47:38.981Z,980.42
2022-11-06T03:48:38.902Z,980.39
2022-11-06T03:49:38.812Z,980.42
2022-11-06T03:50:38.733Z,980.38
2022-11-06T03:51:38.647Z,980.39
2022-11-06T03:52:38.562Z,980.41
2022-11-06T03:53:38.477Z,980.41
2022-11-06T03:54:38.395Z,980.44
2022-11-06T03:55:38.318Z,980.46
2022-11-06T03:56:38.231Z,980.41
2022-11-06T03:57:38.144Z,980.38
2022-11-06T03:58:38.119Z,980.33
2022-11-06T03:59:37.974Z,980.30
2022-11-06T04:00:37.892Z,980.29
2022-11-06T04:01:37.936Z,980.26
2022-11-06T04:02:37.887Z,980.31
2022-11-06T04:03:37.638Z,980.31
2022-11-06T04:04:37.560Z,980.29
2022-11-06T04:05:37.474Z,980.32
2022-11-06T04:06:37.386Z,980.29
2022-11-06T04:07:37.302Z,980.33
2022-11-06T04:08:37.221Z,980.35
2022-11-06T04:09:37.136Z,980.35
2022-11-06T04:10:37.052Z,980.39
2022-11-06T04:11:36.970Z,980.36
2022-11-06T04:12:36.885Z,980.37
2022-11-06T04:13:36.797Z,980.35
2022-11-06T04:14:36.720Z,980.35
2022-11-06T04:15:36.631Z,980.32
2022-11-06T04:16:36.553Z,980.32
2022-11-06T04:17:36.465Z,980.35
2022-11-06T04:18:36.379Z,980.29
2022-11-06T04:19:36.293Z,980.33
2022-11-06T04:20:36.216Z,980.33
2022-11-06T04:21:36.128Z,980.33
2022-11-06T04:22:36.052Z,980.30
2022-11-06T04:23:37.666Z,980.28
2022-11-06T04:24:35.876Z,980.27
2022-11-06T04:25:35.791Z,980.29
2022-11-06T04:26:35.708Z,980.27
2022-11-06T04:27:35.703Z,980.30
2022-11-06T04:28:35.539Z,980.34
2022-11-06T04:29:35.451Z,980.34
2022-11-06T04:30:35.370Z,980.34
2022-11-06T04:31:35.286Z,980.35
2022-11-06T04:32:35.205Z,980.30
2022-11-06T04:33:35.119Z,980.30
2022-11-06T04:34:35.033Z,980.24
2022-11-06T04:35:34.949Z,980.31
2022-11-06T04:36:34.870Z,980.30
2022-11-06T04:37:34.781Z,980.28
2022-11-06T04:38:34.699Z,980.28
2022-11-06T04:39:34.610Z,980.26
2022-11-06T04:40:34.532Z,980.27
2022-11-06T04:41:34.857Z,980.28
2022-11-06T04:42:34.362Z,980.24
2022-11-06T04:43:34.277Z,980.26
2022-11-06T04:44:34.198Z,980.23
2022-11-06T04:45:34.105Z,980.22
2022-11-06T04:46:34.033Z,980.19
2022-11-06T04:47:33.941Z,980.18
2022-11-06T04:48:33.856Z,980.19
2022-11-06T04:49:33.768Z,980.15
2022-11-06T04:50:33.690Z,980.14
2022-11-06T04:51:33.608Z,980.14
2022-11-06T04:52:33.524Z,980.14
2022-11-06T04:53:33.433Z,980.16
2022-11-06T04:54:33.354Z,980.18
2022-11-06T04:55:33.266Z,980.19
2022-11-06T04:56:35.202Z,980.18
2022-11-06T04:57:33.103Z,980.17
2022-11-06T04:58:33.014Z,980.19
2022-11-06T04:59:32.937Z,980.15
2022-11-06T05:00:32.899Z,980.12
2022-11-06T05:01:32.951Z,980.14
2022-11-06T05:02:32.681Z,980.06
2022-11-06T05:03:32.589Z,980.10
2022-11-06T05:04:32.719Z,980.09
2022-11-06T05:05:32.426Z,980.10
2022-11-06T05:06:32.343Z,980.10
2022-11-06T05:07:32.259Z,980.04
2022-11-06T05:08:32.171Z,980.04
2022-11-06T05:09:32.086Z,980.08
2022-11-06T05:10:32.015Z,980.03
2022-11-06T05:11:31.921Z,980.06
2022-11-06T05:12:31.836Z,980.06
2022-11-06T05:13:31.755Z,980.06
2022-11-06T05:14:31.669Z,980.08
2022-11-06T05:15:31.591Z,980.08
2022-11-06T05:16:31.499Z,980.12
2022-11-06T05:17:35.430Z,980.11
2022-11-06T05:18:31.328Z,980.13
2022-11-06T05:19:31.249Z,980.11
2022-11-06T05:20:31.160Z,980.07
2022-11-06T05:21:31.073Z,980.02
2022-11-06T05:22:30.994Z,979.99
2022-11-06T05:23:30.905Z,980.01
2022-11-06T05:24:30.830Z,980.03
2022-11-06T05:25:30.736Z,980.01
2022-11-06T05:26:30.659Z,979.99
2022-11-06T05:27:30.572Z,979.96
2022-11-06T05:28:30.490Z,979.93
2022-11-06T05:29:30.399Z,979.92
2022-11-06T05:30:30.322Z,979.89
2022-11-06T05:31:30.252Z,979.86
2022-11-06T05:32:31.347Z,979.84
2022-11-06T05:33:30.064Z,979.83
2022-11-06T05:34:29.979Z,979.82
2022-11-06T05:35:29.894Z,979.79
2022-11-06T05:36:29.811Z,979.77
2022-11-06T05:37:29.734Z,979.73
2022-11-06T05:38:29.643Z,979.73
2022-11-06T05:39:29.562Z,979.71
2022-11-06T05:40:29.474Z,979.74
2022-11-06T05:41:29.388Z,979.71
2022-11-06T05:42:29.306Z,979.71
2022-11-06T05:43:29.221Z,979.69
2022-11-06T05:44:29.133Z,979.72
2022-11-06T05:45:29.054Z,979.69
2022-11-06T05:46:47.507Z,979.67
2022-11-06T05:47:28.888Z,979.70
2022-11-06T05:48:28.798Z,979.68
2022-11-06T05:49:28.714Z,979.66
2022-11-06T05:50:28.628Z,979.62
2022-11-06T05:51:28.564Z,979.61
2022-11-06T05:52:28.458Z,979.65
2022-11-06T05:53:28.375Z,979.68
2022-11-06T05:54:28.294Z,979.71
2022-11-06T05:55:28.207Z,979.69
2022-11-06T05:56:28.124Z,979.71
2022-11-06T05:57:28.041Z,979.69
2022-11-06T05:58:27.958Z,979.65
2022-11-06T05:59:27.869Z,979.67
2022-11-06T06:00:27.790Z,979.61
2022-11-06T06:01:27.765Z,979.62
2022-11-06T06:02:27.757Z,979.57
2022-11-06T06:03:27.636Z,979.59
2022-11-06T06:04:27.450Z,979.55
2022-11-06T06:05:27.363Z,979.50
2022-11-06T06:06:27.277Z,979.49
2022-11-06T06:07:27.195Z,979.48
2022-11-06T06:08:27.105Z,979.48
2022-11-06T06:09:27.027Z,979.54
2022-11-06T06:10:26.939Z,979.55
2022-11-06T06:11:26.860Z,979.58
2022-11-06T06:12:26.772Z,979.56
2022-11-06T06:13:26.685Z,979.50
2022-11-06T06:14:26.607Z,979.52
2022-11-06T06:15:26.519Z,979.49
2022-11-06T06:16:26.429Z,979.52
2022-11-06T06:17:26.350Z,979.54
2022-11-06T06:18:26.261Z,979.57
2022-11-06T06:19:26.182Z,979.60
2022-11-06T06:20:26.092Z,979.61
2022-11-06T06:21:26.013Z,979.59
2022-11-06T06:22:25.921Z,979.63
2022-11-06T06:23:25.844Z,979.63
2022-11-06T06:24:25.789Z,979.62
2022-11-06T06:25:25.799Z,979.63
2022-11-06T06:26:25.586Z,979.68
2022-11-06T06:27:25.501Z,979.64
2022-11-06T06:28:25.417Z,979.68
2022-11-06T06:29:25.333Z,979.69
2022-11-06T06:30:25.249Z,979.70
2022-11-06T06:31:25.161Z,979.67
2022-11-06T06:32:25.076Z,979.71
2022-11-06T06:33:24.992Z,979.67
2022-11-06T06:34:24.908Z,979.67
2022-11-06T06:35:24.832Z,979.69
2022-11-06T06:36:24.739Z,979.72
2022-11-06T06:37:24.654Z,979.76
2022-11-06T06:38:24.600Z,979.82
2022-11-06T06:39:24.486Z,979.83
2022-11-06T06:40:24.400Z,979.85
2022-11-06T06:41:24.323Z,979.91
2022-11-06T06:42:30.203Z,979.90
2022-11-06T06:43:24.151Z,979.92
2022-11-06T06:44:24.060Z,979.93
2022-11-06T06:45:23.980Z,979.93
2022-11-06T06:46:23.892Z,979.99
2022-11-06T06:47:23.813Z,979.97
2022-11-06T06:48:23.727Z,980.03
2022-11-06T06:49:23.642Z,980.08
2022-11-06T06:50:23.554Z,980.15
2022-11-06T06:51:24.178Z,980.13
2022-11-06T06:52:23.387Z,980.20
2022-11-06T06:53:23.301Z,980.17
2022-11-06T06:54:23.215Z,980.15
2022-11-06T06:55:23.132Z,980.19
2022-11-06T06:56:23.049Z,980.17
2022-11-06T06:57:22.972Z,980.17
2022-11-06T06:58:23.323Z,980.21
2022-11-06T06:59:22.796Z,980.24
2022-11-06T07:00:22.709Z,980.30
2022-11-06T07:01:22.800Z,980.36
2022-11-06T07:02:22.670Z,980.41
2022-11-06T07:03:22.461Z,980.45
2022-11-06T07:04:22.369Z,980.44
2022-11-06T07:05:22.288Z,980.48
2022-11-06T07:06:22.201Z,980.51
2022-11-06T07:07:22.129Z,980.48
2022-11-06T07:08:22.037Z,980.45
2022-11-06T07:09:21.953Z,980.38
2022-11-06T07:10:21.863Z,980.34
2022-11-06T07:11:21.781Z,980.31
2022-11-06T07:12:21.697Z,980.32
2022-11-06T07:13:21.612Z,980.34
2022-11-06T07:14:21.525Z,980.34
2022-11-06T07:15:21.441Z,980.32
2022-11-06T07:16:21.360Z,980.33
2022-11-06T07:17:21.275Z,980.27
2022-11-06T07:18:21.188Z,980.18
2022-11-06T07:19:21.106Z,980.19
2022-11-06T07:20:21.022Z,980.13
2022-11-06T07:21:20.938Z,980.15
2022-11-06T07:22:28.647Z,980.13
2022-11-06T07:23:20.768Z,980.15
2022-11-06T07:24:20.684Z,980.15
2022-11-06T07:25:20.599Z,980.18
2022-11-06T07:26:20.516Z,980.14
2022-11-06T07:27:20.431Z,980.16
2022-11-06T07:28:20.348Z,980.12
2022-11-06T07:29:20.262Z,980.13
2022-11-06T07:30:20.180Z,980.16
2022-11-06T07:31:20.093Z,980.16
2022-11-06T07:32:20.006Z,980.21
2022-11-06T07:33:19.922Z,980.18
2022-11-06T07:34:19.837Z,980.23
2022-11-06T07:35:19.752Z,980.22
2022-11-06T07:36:19.666Z,980.21
2022-11-06T07:37:19.588Z,980.21
2022-11-06T07:38:19.498Z,980.23
2022-11-06T07:39:19.427Z,980.18
2022-11-06T07:40:19.337Z,980.17
2022-11-06T07:41:19.256Z,980.13
2022-11-06T07:42:19.169Z,980.13
2022-11-06T07:43:19.080Z,980.11
2022-11-06T07:44:18.996Z,980.10
2022-11-06T07:45:18.911Z,980.08
2022-11-06T07:46:18.847Z,980.11
2022-11-06T07:47:18.740Z,980.12
2022-11-06T07:48:18.660Z,980.10
2022-11-06T07:49:18.576Z,980.11
2022-11-06T07:50:18.486Z,980.11
2022-11-06T07:51:18.403Z,980.05
2022-11-06T07:52:18.315Z,980.07
2022-11-06T07:53:18.237Z,980.04
2022-11-06T07:54:18.149Z,980.02
2022-11-06T07:55:18.066Z,980.03
2022-11-06T07:56:17.978Z,980.06
2022-11-06T07:57:17.897Z,980.03
2022-11-06T07:58:17.818Z,980.01
2022-11-06T07:59:17.731Z,980.01
2022-11-06T08:00:17.643Z,979.99
2022-11-06T08:01:18.956Z,979.97
2022-11-06T08:02:17.511Z,979.96
2022-11-06T08:03:17.393Z,979.96
2022-11-06T08:04:17.306Z,979.91
2022-11-06T08:05:17.227Z,979.89
2022-11-06T08:06:17.137Z,979.85
2022-11-06T08:07:17.055Z,979.86
2022-11-06T08:08:17.139Z,979.84
2022-11-06T08:09:16.887Z,979.83
2022-11-06T08:10:16.799Z,979.80
2022-11-06T08:11:16.721Z,979.84
2022-11-06T08:12:16.633Z,979.84
2022-11-06T08:13:16.569Z,979.82
2022-11-06T08:14:16.466Z,979.87
2022-11-06T08:15:16.380Z,979.89
2022-11-06T08:16:16.293Z,979.93
2022-11-06T08:17:16.210Z,979.93
2022-11-06T08:18:16.566Z,979.92
2022-11-06T08:19:16.045Z,979.89
2022-11-06T08:20:15.957Z,979.92
2022-11-06T08:21:15.873Z,979.82
2022-11-06T08:22:15.800Z,979.78
2022-11-06T08:23:15.715Z,979.73
2022-11-06T08:24:21.544Z,979.73
2022-11-06T08:25:15.538Z,979.62
2022-11-06T08:26:15.462Z,979.57
2022-11-06T08:27:15.374Z,979.59
2022-11-06T08:28:15.601Z,979.56
2022-11-06T08:29:15.314Z,979.47
2022-11-06T08:30:15.119Z,979.48
2022-11-06T08:31:15.032Z,979.48
2022-11-06T08:32:14.952Z,979.44
2022-11-06T08:33:14.865Z,979.47
2022-11-06T08:34:14.793Z,979.45
2022-11-06T08:35:14.698Z,979.43
2022-11-06T08:36:14.615Z,979.45
2022-11-06T08:37:14.528Z,979.45
2022-11-06T08:38:14.834Z,979.45
2022-11-06T08:39:14.359Z,979.48
2022-11-06T08:40:14.275Z,979.50
2022-11-06T08:41:14.193Z,979.48
2022-11-06T08:42:14.112Z,979.51
2022-11-06T08:43:14.400Z,979.47
2022-11-06T08:44:13.938Z,979.45
2022-11-06T08:45:13.859Z,979.40
2022-11-06T08:46:13.774Z,979.45
2022-11-06T08:47:13.690Z,979.44
2022-11-06T08:48:13.601Z,979.46
2022-11-06T08:49:13.520Z,979.40
2022-11-06T08:50:13.433Z,979.41
2022-11-06T08:51:13.353Z,979.40
2022-11-06T08:52:13.268Z,979.39
2022-11-06T08:53:13.569Z,979.37
2022-11-06T08:54:13.241Z,979.35
2022-11-06T08:55:13.016Z,979.34
2022-11-06T08:56:12.929Z,979.31
2022-11-06T08:57:12.850Z,979.31
2022-11-06T08:58:12.762Z,979.27
2022-11-06T08:59:12.691Z,979.26
2022-11-06T09:00:12.597Z,979.22
2022-11-06T09:01:12.573Z,979.27
2022-11-06T09:02:12.465Z,979.23
2022-11-06T09:03:12.695Z,979.26
2022-11-06T09:04:12.263Z,979.22
2022-11-06T09:05:12.175Z,979.18
2022-11-06T09:06:12.093Z,979.18
2022-11-06T09:07:12.010Z,979.10
2022-11-06T09:08:11.927Z,979.06
2022-11-06T09:09:11.841Z,979.01
2022-11-06T09:10:11.756Z,979.02
2022-11-06T09:11:11.684Z,979.00
2022-11-06T09:12:11.586Z,978.96
2022-11-06T09:13:11.945Z,978.95
2022-11-06T09:14:11.421Z,978.91
2022-11-06T09:15:11.342Z,978.92
2022-11-06T09:16:15.525Z,978.91
2022-11-06T09:17:11.173Z,978.88
2022-11-06T09:18:11.083Z,978.87
2022-11-06T09:19:11.000Z,978.84
2022-11-06T09:20:10.924Z,978.79
2022-11-06T09:21:10.842Z,978.76
2022-11-06T09:22:10.749Z,978.76
2022-11-06T09:23:10.986Z,978.79
2022-11-06T09:24:10.584Z,978.79
2022-11-06T09:25:10.502Z,978.79
2022-11-06T09:26:10.413Z,978.73
2022-11-06T09:27:10.331Z,978.71
2022-11-06T09:28:10.252Z,978.69
2022-11-06T09:29:10.167Z,978.72
2022-11-06T09:30:10.078Z,978.66
2022-11-06T09:31:10.006Z,978.68
2022-11-06T09:32:09.915Z,978.69
2022-11-06T09:33:13.526Z,978.68
2022-11-06T09:34:09.750Z,978.66
2022-11-06T09:35:09.665Z,978.64
2022-11-06T09:36:09.580Z,978.66
2022-11-06T09:37:09.499Z,978.63
2022-11-06T09:38:09.415Z,978.64
2022-11-06T09:39:09.332Z,978.67
2022-11-06T09:40:09.249Z,978.65
2022-11-06T09:41:09.166Z,978.67
2022-11-06T09:42:09.078Z,978.65
2022-11-06T09:43:08.997Z,978.53
2022-11-06T09:44:08.920Z,978.57
2022-11-06T09:45:08.834Z,978.57
2022-11-06T09:46:08.744Z,978.53
2022-11-06T09:47:08.661Z,978.53
2022-11-06T09:48:08.581Z,978.50
2022-11-06T09:49:08.514Z,978.48
2022-11-06T09:50:08.408Z,978.48
2022-11-06T09:51:08.329Z,978.47
2022-11-06T09:52:08.246Z,978.46
2022-11-06T09:53:08.161Z,978.42
2022-11-06T09:54:08.074Z,978.38
2022-11-06T09:55:07.996Z,978.41
2022-11-06T09:56:07.909Z,978.41
2022-11-06T09:57:07.839Z,978.41
2022-11-06T09:58:07.745Z,978.42
2022-11-06T09:59:07.660Z,978.46
2022-11-06T10:00:07.575Z,978.38
2022-11-06T10:01:07.572Z,978.33
2022-11-06T10:02:07.513Z,978.33
2022-11-06T10:03:07.424Z,978.27
2022-11-06T10:04:07.242Z,978.24
2022-11-06T10:05:07.166Z,978.24
2022-11-06T10:06:07.076Z,978.18
2022-11-06T10:07:06.991Z,978.25
2022-11-06T10:08:06.916Z,978.28
2022-11-06T10:09:06.827Z,978.40
2022-11-06T10:10:06.748Z,978.29
2022-11-06T10:11:06.656Z,978.30
2022-11-06T10:12:06.581Z,978.28
2022-11-06T10:13:06.492Z,978.33
2022-11-06T10:14:06.413Z,978.31
2022-11-06T10:15:06.326Z,978.27
2022-11-06T10:16:06.243Z,978.24
2022-11-06T10:17:06.158Z,978.24
2022-11-06T10:18:06.076Z,978.24
2022-11-06T10:19:06.002Z,978.24
2022-11-06T10:20:05.911Z,978.24
2022-11-06T10:21:05.829Z,978.20
2022-11-06T10:22:05.748Z,978.17
2022-11-06T10:23:05.667Z,978.13
2022-11-06T10:24:05.579Z,978.16
2022-11-06T10:25:05.495Z,978.19
2022-11-06T10:26:05.412Z,978.10
2022-11-06T10:27:05.327Z,978.16
2022-11-06T10:28:05.270Z,978.11
2022-11-06T10:29:05.170Z,978.09
2022-11-06T10:30:05.079Z,978.10
2022-11-06T10:31:04.998Z,978.07
2022-11-06T10:32:04.916Z,978.04
2022-11-06T10:33:04.829Z,978.07
2022-11-06T10:34:04.749Z,978.03
2022-11-06T10:35:04.720Z,978.04
2022-11-06T10:36:04.583Z,977.97
2022-11-06T10:37:04.495Z,977.93
2022-11-06T10:38:04.421Z,977.89
2022-11-06T10:39:04.334Z,977.88
2022-11-06T10:40:04.247Z,977.86
2022-11-06T10:41:04.168Z,977.85
2022-11-06T10:42:04.082Z,977.83
2022-11-06T10:43:03.997Z,977.83
2022-11-06T10:44:03.916Z,977.82
2022-11-06T10:45:03.839Z,977.85
2022-11-06T10:46:03.754Z,977.81
2022-11-06T10:47:03.666Z,977.85
2022-11-06T10:48:03.590Z,977.79
2022-11-06T10:49:03.506Z,977.84
2022-11-06T10:50:03.418Z,977.77
2022-11-06T10:51:03.337Z,977.77
2022-11-06T10:52:03.254Z,977.75
2022-11-06T10:53:03.172Z,977.69
2022-11-06T10:54:03.089Z,977.74
2022-11-06T10:55:03.005Z,977.70
2022-11-06T10:56:08.176Z,977.68
2022-11-06T10:57:02.842Z,977.70
2022-11-06T10:58:02.757Z,977.69
2022-11-06T10:59:02.676Z,977.68
2022-11-06T11:00:02.594Z,977.65
2022-11-06T11:01:02.638Z,977.66
2022-11-06T11:02:03.575Z,977.64
2022-11-06T11:03:02.340Z,977.62
2022-11-06T11:04:02.262Z,977.60
2022-11-06T11:05:02.177Z,977.57
2022-11-06T11:06:02.094Z,977.59
2022-11-06T11:07:02.011Z,977.56
2022-11-06T11:08:01.932Z,977.52
2022-11-06T11:09:01.845Z,977.51
2022-11-06T11:10:01.764Z,977.52
2022-11-06T11:11:05.163Z,977.50
2022-11-06T11:12:01.601Z,977.51
2022-11-06T11:13:05.479Z,977.53
2022-11-06T11:14:01.435Z,977.54
2022-11-06T11:15:01.390Z,977.52
2022-11-06T11:16:01.271Z,977.50
2022-11-06T11:17:01.192Z,977.52
2022-11-06T11:18:01.101Z,977.53
2022-11-06T11:19:01.026Z,977.53
2022-11-06T11:20:00.944Z,977.53
2022-11-06T11:21:00.856Z,977.50
2022-11-06T11:22:00.772Z,977.52
2022-11-06T11:23:00.794Z,977.51
2022-11-06T11:24:00.614Z,977.46
2022-11-06T11:25:00.526Z,977.49
2022-11-06T11:26:00.446Z,977.48
2022-11-06T11:27:00.358Z,977.52
2022-11-06T11:28:04.639Z,977.51
2022-11-06T11:29:00.199Z,977.49
2022-11-06T11:30:00.178Z,977.51
2022-11-06T11:31:00.038Z,977.54
2022-11-06T11:31:59.948Z,977.50
2022-11-06T11:32:59.863Z,977.50
2022-11-06T11:33:59.789Z,977.53
2022-11-06T11:34:59.704Z,977.50
2022-11-06T11:35:59.620Z,977.51
2022-11-06T11:36:59.536Z,977.45
2022-11-06T11:37:59.453Z,977.45
2022-11-06T11:38:59.441Z,977.44
2022-11-06T11:39:59.291Z,977.45
2022-11-06T11:40:59.217Z,977.43
2022-11-06T11:41:59.123Z,977.42
2022-11-06T11:42:59.043Z,977.41
2022-11-06T11:43:58.960Z,977.39
2022-11-06T11:44:58.879Z,977.37
2022-11-06T11:45:58.797Z,977.32
2022-11-06T11:46:58.710Z,977.34
2022-11-06T11:47:58.644Z,977.27
2022-11-06T11:48:58.552Z,977.27
2022-11-06T11:49:58.468Z,977.27
2022-11-06T11:50:58.385Z,977.26
2022-11-06T11:51:58.301Z,977.25
2022-11-06T11:52:58.219Z,977.27
2022-11-06T11:53:58.141Z,977.26
2022-11-06T11:54:58.059Z,977.25
2022-11-06T11:55:57.974Z,977.23
2022-11-06T11:57:06.965Z,977.21
2022-11-06T11:57:57.805Z,977.21
2022-11-06T11:58:57.728Z,977.23
2022-11-06T11:59:57.650Z,977.23
2022-11-06T12:00:57.566Z,977.23
2022-11-06T12:01:57.601Z,977.20
2022-11-06T12:02:57.450Z,977.21
2022-11-06T12:03:57.315Z,977.19
2022-11-06T12:04:57.242Z,977.11
2022-11-06T12:05:57.150Z,977.12
2022-11-06T12:06:57.068Z,977.10
2022-11-06T12:07:56.987Z,977.12
2022-11-06T12:08:56.911Z,977.12
2022-11-06T12:09:56.826Z,977.16
2022-11-06T12:10:56.749Z,977.12
2022-11-06T12:11:56.673Z,977.10
2022-11-06T12:12:56.577Z,977.03
2022-11-06T12:13:56.494Z,977.00
2022-11-06T12:14:56.415Z,976.93
2022-11-06T12:15:56.332Z,976.93
2022-11-06T12:16:56.250Z,976.88
2022-11-06T12:17:56.165Z,976.85
2022-11-06T12:18:58.923Z,976.80
2022-11-06T12:19:56.003Z,976.81
2022-11-06T12:20:55.922Z,976.76
2022-11-06T12:21:55.839Z,976.76
2022-11-06T12:22:55.759Z,976.77
2022-11-06T12:23:55.680Z,976.77
2022-11-06T12:24:55.598Z,976.74
2022-11-06T12:25:55.536Z,976.75
2022-11-06T12:26:55.431Z,976.75
2022-11-06T12:27:55.347Z,976.76